Mercer, Missouri
Current Conditions -  °F | °C
As of 9:09 AM on Monday 24 Nov 2014 (Local Time) from KLWD Reporting Station
Overcast Overcast  
Wind Chill: 13°   Ceiling: 2400
Heat Index: 28°   Visibility: 10mi
Dew Point: 20°   Wind: 25mph
Humidity: 72%   Direction: 300°WNW
Pressure: 29.6"   Gusts: 33mph
Location:  40.51°N, 93.53°W
Report Text: KLWD 241509Z AUTO 30022G29KT 10SM BKN024 OVC035 M02/M07 A2960 RMK AO2 PK WND 30029/1507 T10221067
Loading
Personal Weather Stations






























Interactive Weather Map New forecast layout! Learn more

10-Day Weather Forecast

Advertisements
Track Severe Weather on mobile